Time;durP1;ratioP1;P1;durP2;ratioP2;P2;SDS_P1;SDS_P2;PMS_P1;PMS_P2;Temp;Humidity;BMP_temperature;BMP_pressure;BME280_temperature;BME280_humidity;BME280_pressure;Samples;Min_cycle;Max_cycle;Signal;HPM_P1;HPM_P2
2024/05/01 00:01:24;;;;;;;16.73;4.55;;;;;;;;;;5526664;26;20691;-81
2024/05/01 00:03:50;;;;;;;15.15;5.18;;;;;;;;;;5525970;26;20331;-81
2024/05/01 00:06:16;;;;;;;22.00;5.95;;;;;;;;;;5526903;26;20745;-81
2024/05/01 00:08:46;;;;;;;22.70;7.28;;;;;;;;;;5525949;26;20347;-81
2024/05/01 00:11:12;;;;;;;20.33;6.57;;;;;;;;;;5526232;26;20359;-81
2024/05/01 00:13:38;;;;;;;17.53;5.73;;;;;;;;;;5526777;26;20360;-81
2024/05/01 00:16:04;;;;;;;21.85;5.57;;;;;;;;;;5526411;26;20319;-81
2024/05/01 00:18:33;;;;;;;20.25;5.63;;;;;;;;;;5525173;26;20312;-81
2024/05/01 00:21:00;;;;;;;17.00;5.00;;;;;;;;;;5525898;26;20335;-81
2024/05/01 00:23:26;;;;;;;15.10;5.20;;;;;;;;;;5525710;26;20324;-81
2024/05/01 00:25:52;;;;;;;17.65;5.13;;;;;;;;;;5525878;26;20318;-81
2024/05/01 00:28:18;;;;;;;18.33;4.73;;;;;;;;;;5526120;26;20728;-81
2024/05/01 00:30:44;;;;;;;17.45;4.72;;;;;;;;;;5525500;26;20323;-81
2024/05/01 00:33:10;;;;;;;19.63;5.40;;;;;;;;;;5526285;26;20316;-81
2024/05/01 00:35:36;;;;;;;19.42;4.88;;;;;;;;;;5525466;26;20351;-81
2024/05/01 00:38:02;;;;;;;13.57;4.60;;;;;;;;;;5509553;26;20324;-81
2024/05/01 00:40:28;;;;;;;20.38;4.78;;;;;;;;;;5525154;26;20360;-81
2024/05/01 00:42:55;;;;;;;17.88;4.80;;;;;;;;;;5525290;26;20665;-81
2024/05/01 00:45:21;;;;;;;17.50;4.93;;;;;;;;;;5525574;26;20316;-78
2024/05/01 00:47:51;;;;;;;20.02;4.75;;;;;;;;;;5525123;26;20408;-78
2024/05/01 00:50:20;;;;;;;14.27;4.55;;;;;;;;;;5525423;26;20941;-81
2024/05/01 00:52:46;;;;;;;17.00;4.50;;;;;;;;;;5525473;26;20319;-81
2024/05/01 00:55:13;;;;;;;17.97;4.50;;;;;;;;;;5526423;26;20921;-81
2024/05/01 00:57:39;;;;;;;14.05;4.22;;;;;;;;;;5528812;26;20328;-81
2024/05/01 01:00:06;;;;;;;16.13;4.43;;;;;;;;;;5528936;26;20331;-81
2024/05/01 01:02:32;;;;;;;17.02;4.60;;;;;;;;;;5522990;26;20426;-81
2024/05/01 01:04:58;;;;;;;15.00;4.40;;;;;;;;;;5529008;26;20677;-81
2024/05/01 01:07:24;;;;;;;17.40;5.03;;;;;;;;;;5528536;26;20324;-81
2024/05/01 01:09:50;;;;;;;18.88;5.28;;;;;;;;;;5529339;26;20850;-81
2024/05/01 01:12:23;;;;;;;14.30;4.63;;;;;;;;;;5528557;26;20324;-81
2024/05/01 01:14:49;;;;;;;18.37;5.03;;;;;;;;;;5528852;26;20315;-82
2024/05/01 01:17:15;;;;;;;20.63;4.88;;;;;;;;;;5528913;26;20360;-81
2024/05/01 01:19:41;;;;;;;20.10;4.88;;;;;;;;;;5528821;26;20324;-81
2024/05/01 01:22:07;;;;;;;18.67;4.65;;;;;;;;;;5528686;26;20410;-81
2024/05/01 01:24:33;;;;;;;16.10;4.80;;;;;;;;;;5529301;26;20771;-81
2024/05/01 01:26:59;;;;;;;16.85;4.88;;;;;;;;;;5528957;26;20348;-81
2024/05/01 01:29:25;;;;;;;18.92;4.57;;;;;;;;;;5529091;26;20821;-81
2024/05/01 01:31:52;;;;;;;17.75;4.80;;;;;;;;;;5528684;26;20319;-81
2024/05/01 01:34:18;;;;;;;20.55;4.80;;;;;;;;;;5528600;26;20328;-81
2024/05/01 01:36:43;;;;;;;18.55;4.60;;;;;;;;;;5522972;26;20370;-81
2024/05/01 01:39:09;;;;;;;20.05;4.60;;;;;;;;;;5518737;26;20323;-81
2024/05/01 01:41:35;;;;;;;15.23;4.35;;;;;;;;;;5528361;26;20860;-81
2024/05/01 01:44:02;;;;;;;16.03;4.97;;;;;;;;;;5528393;26;20323;-81
2024/05/01 01:46:31;;;;;;;21.92;5.05;;;;;;;;;;5528599;26;20359;-81
2024/05/01 01:48:57;;;;;;;19.25;4.70;;;;;;;;;;5528511;26;20397;-81
2024/05/01 01:51:23;;;;;;;17.42;4.57;;;;;;;;;;5528195;26;20364;-81
2024/05/01 01:53:49;;;;;;;18.30;4.25;;;;;;;;;;5528250;26;20320;-81
2024/05/01 01:56:15;;;;;;;18.48;4.97;;;;;;;;;;5528523;26;20860;-81
2024/05/01 01:58:45;;;;;;;19.42;4.95;;;;;;;;;;5527754;26;20324;-81
2024/05/01 02:01:11;;;;;;;17.75;4.88;;;;;;;;;;5527948;26;20315;-81
2024/05/01 02:03:37;;;;;;;14.65;4.53;;;;;;;;;;5528202;26;20332;-81
2024/05/01 02:06:11;;;;;;;16.90;4.30;;;;;;;;;;5527333;26;20356;-80
2024/05/01 02:08:37;;;;;;;14.95;4.80;;;;;;;;;;5527070;26;20367;-81
2024/05/01 02:11:03;;;;;;;17.05;4.57;;;;;;;;;;5495804;26;20320;-81
2024/05/01 02:13:29;;;;;;;13.35;4.65;;;;;;;;;;5527652;26;20327;-81
2024/05/01 02:15:55;;;;;;;19.85;4.53;;;;;;;;;;5527769;26;20368;-81
2024/05/01 02:18:21;;;;;;;18.98;4.97;;;;;;;;;;5527398;26;20328;-80
2024/05/01 02:20:50;;;;;;;23.40;5.38;;;;;;;;;;5527934;26;20364;-81
2024/05/01 02:23:16;;;;;;;17.10;4.75;;;;;;;;;;5495065;26;20381;-80
2024/05/01 02:25:42;;;;;;;17.00;4.70;;;;;;;;;;5527517;26;20327;-80
2024/05/01 02:28:11;;;;;;;22.15;5.05;;;;;;;;;;5527271;26;20852;-81
2024/05/01 02:30:37;;;;;;;17.40;4.80;;;;;;;;;;5527730;26;20654;-81
2024/05/01 02:33:03;;;;;;;24.10;6.10;;;;;;;;;;5527926;26;20397;-81
2024/05/01 02:35:29;;;;;;;16.58;4.90;;;;;;;;;;5527975;26;20320;-80
2024/05/01 02:37:55;;;;;;;19.17;5.03;;;;;;;;;;5511292;26;20323;-80
2024/05/01 02:40:21;;;;;;;17.80;4.50;;;;;;;;;;5527374;26;20327;-80
2024/05/01 02:42:47;;;;;;;16.88;4.78;;;;;;;;;;5527391;26;20323;-80
2024/05/01 02:45:13;;;;;;;16.58;4.45;;;;;;;;;;5528060;26;20316;-81
2024/05/01 02:47:39;;;;;;;14.10;4.45;;;;;;;;;;5527159;26;20683;-81
2024/05/01 02:50:05;;;;;;;18.05;5.40;;;;;;;;;;5527385;26;20352;-80
2024/05/01 02:52:31;;;;;;;16.52;4.68;;;;;;;;;;5527321;26;20368;-81
2024/05/01 02:54:57;;;;;;;19.50;4.75;;;;;;;;;;5527042;26;20320;-80
2024/05/01 02:57:23;;;;;;;18.65;4.97;;;;;;;;;;5527171;26;20327;-80
2024/05/01 02:59:49;;;;;;;20.57;5.03;;;;;;;;;;5527058;26;20384;-81
2024/05/01 03:02:15;;;;;;;20.65;4.82;;;;;;;;;;5525955;26;20421;-81
2024/05/01 03:04:42;;;;;;;19.98;5.22;;;;;;;;;;5521980;26;20319;-80
2024/05/01 03:07:08;;;;;;;21.08;5.32;;;;;;;;;;5527018;26;20331;-80
2024/05/01 03:09:34;;;;;;;23.27;5.20;;;;;;;;;;5526899;26;20363;-80
2024/05/01 03:12:00;;;;;;;15.75;4.50;;;;;;;;;;5526912;26;20333;-81
2024/05/01 03:14:28;;;;;;;19.30;4.65;;;;;;;;;;5526736;26;20372;-80
2024/05/01 03:16:54;;;;;;;22.48;4.95;;;;;;;;;;5527273;26;20328;-81
2024/05/01 03:19:20;;;;;;;20.13;4.75;;;;;;;;;;5526053;26;20328;-80
2024/05/01 03:21:46;;;;;;;16.00;4.95;;;;;;;;;;5526794;26;20356;-80
2024/05/01 03:24:12;;;;;;;18.55;4.40;;;;;;;;;;5526994;26;20319;-80
2024/05/01 03:26:38;;;;;;;17.98;4.93;;;;;;;;;;5526907;26;20332;-80
2024/05/01 03:29:04;;;;;;;20.30;5.10;;;;;;;;;;5526334;26;20319;-80
2024/05/01 03:31:30;;;;;;;20.33;5.17;;;;;;;;;;5526826;26;20327;-81
2024/05/01 03:33:56;;;;;;;21.25;5.25;;;;;;;;;;5527022;26;20411;-81
2024/05/01 03:36:22;;;;;;;20.70;4.97;;;;;;;;;;5525764;26;20327;-80
2024/05/01 03:38:48;;;;;;;20.27;4.75;;;;;;;;;;5510895;26;20359;-80
2024/05/01 03:41:17;;;;;;;18.13;5.00;;;;;;;;;;5525877;26;20331;-80
2024/05/01 03:43:46;;;;;;;19.88;5.13;;;;;;;;;;5524533;26;20395;-80
2024/05/01 03:46:12;;;;;;;19.55;5.15;;;;;;;;;;5524529;26;20328;-80
2024/05/01 03:48:38;;;;;;;16.77;4.57;;;;;;;;;;5525654;26;20357;-80
2024/05/01 03:51:05;;;;;;;21.60;5.37;;;;;;;;;;5526299;26;20820;-81
2024/05/01 03:53:31;;;;;;;18.58;5.20;;;;;;;;;;5526040;26;20339;-80
2024/05/01 03:55:57;;;;;;;15.70;4.72;;;;;;;;;;5526777;26;20327;-80
2024/05/01 03:58:23;;;;;;;19.35;4.72;;;;;;;;;;5525971;26;20405;-80
2024/05/01 04:00:49;;;;;;;16.88;4.95;;;;;;;;;;5526240;26;20422;-80
2024/05/01 04:03:15;;;;;;;20.23;4.50;;;;;;;;;;5526257;26;20665;-80
2024/05/01 04:05:41;;;;;;;18.97;5.20;;;;;;;;;;5525252;26;20364;-80
2024/05/01 04:08:10;;;;;;;17.73;5.05;;;;;;;;;;5525542;26;20386;-80
2024/05/01 04:10:36;;;;;;;17.80;4.75;;;;;;;;;;5525764;26;20368;-80
2024/05/01 04:13:06;;;;;;;19.85;4.75;;;;;;;;;;5526069;26;20387;-80
2024/05/01 04:15:32;;;;;;;22.33;5.35;;;;;;;;;;5525445;26;20328;-80
2024/05/01 04:17:58;;;;;;;21.92;5.47;;;;;;;;;;5525789;26;20710;-80
2024/05/01 04:20:24;;;;;;;16.88;4.72;;;;;;;;;;5525415;26;20371;-80
2024/05/01 04:22:50;;;;;;;18.50;5.23;;;;;;;;;;5524922;26;20359;-80
2024/05/01 04:25:17;;;;;;;14.45;4.63;;;;;;;;;;5526083;26;20819;-80
2024/05/01 04:27:43;;;;;;;18.83;5.20;;;;;;;;;;5525489;26;20331;-80
2024/05/01 04:30:09;;;;;;;14.65;4.80;;;;;;;;;;5527367;26;20328;-80
2024/05/01 04:32:35;;;;;;;16.45;4.70;;;;;;;;;;5530049;26;20355;-80
2024/05/01 04:35:01;;;;;;;20.65;4.80;;;;;;;;;;5529236;26;20328;-80
2024/05/01 04:37:27;;;;;;;16.15;4.90;;;;;;;;;;5513252;26;20405;-80
2024/05/01 04:39:53;;;;;;;18.23;5.15;;;;;;;;;;5529742;26;20752;-80
2024/05/01 04:42:19;;;;;;;18.43;5.13;;;;;;;;;;5529377;26;20789;-80
2024/05/01 04:44:45;;;;;;;21.45;5.43;;;;;;;;;;5528860;26;20433;-80
2024/05/01 04:47:12;;;;;;;17.30;5.03;;;;;;;;;;5528819;26;20328;-80
2024/05/01 04:49:37;;;;;;;20.67;5.03;;;;;;;;;;5528983;26;20878;-80
2024/05/01 04:52:04;;;;;;;19.38;5.25;;;;;;;;;;5529281;26;20324;-80
2024/05/01 04:54:30;;;;;;;18.15;5.38;;;;;;;;;;5529450;26;20686;-80
2024/05/01 04:56:55;;;;;;;23.80;5.30;;;;;;;;;;5528855;26;20336;-80
2024/05/01 04:59:21;;;;;;;17.33;5.18;;;;;;;;;;5528773;26;20368;-80
2024/05/01 05:01:48;;;;;;;19.13;5.07;;;;;;;;;;5528645;26;20477;-80
2024/05/01 05:04:13;;;;;;;20.20;4.53;;;;;;;;;;5528278;26;20332;-80
2024/05/01 05:06:39;;;;;;;21.95;5.07;;;;;;;;;;5528723;26;20373;-80
2024/05/01 05:09:06;;;;;;;22.65;4.93;;;;;;;;;;5528907;26;20335;-80
2024/05/01 05:11:37;;;;;;;15.90;5.05;;;;;;;;;;5528680;26;20358;-80
2024/05/01 05:14:04;;;;;;;19.42;5.43;;;;;;;;;;5505082;26;20367;-80
2024/05/01 05:16:30;;;;;;;14.75;4.32;;;;;;;;;;5528871;26;20354;-80
2024/05/01 05:18:56;;;;;;;19.02;4.90;;;;;;;;;;5528761;26;20886;-80
2024/05/01 05:21:22;;;;;;;19.23;5.40;;;;;;;;;;5528889;26;20323;-80
2024/05/01 05:23:48;;;;;;;15.90;4.75;;;;;;;;;;5528621;26;20332;-80
2024/05/01 05:26:15;;;;;;;17.17;4.63;;;;;;;;;;5528631;26;20335;-80
2024/05/01 05:28:42;;;;;;;21.10;4.93;;;;;;;;;;5528539;26;20397;-80
2024/05/01 05:31:08;;;;;;;18.42;4.97;;;;;;;;;;5528201;26;20328;-81
2024/05/01 05:33:37;;;;;;;16.48;4.68;;;;;;;;;;5528634;26;20336;-80
2024/05/01 05:36:03;;;;;;;15.50;5.22;;;;;;;;;;5528328;26;20332;-80
2024/05/01 05:38:29;;;;;;;17.77;4.90;;;;;;;;;;5512935;26;20343;-80
2024/05/01 05:40:55;;;;;;;16.23;4.88;;;;;;;;;;5528501;26;20362;-80
2024/05/01 05:43:21;;;;;;;17.77;4.43;;;;;;;;;;5528603;26;20331;-80
2024/05/01 05:45:49;;;;;;;15.98;4.75;;;;;;;;;;5528789;26;20428;-80
2024/05/01 05:48:15;;;;;;;19.65;4.72;;;;;;;;;;5528630;26;20320;-80
2024/05/01 05:50:42;;;;;;;20.48;4.85;;;;;;;;;;5529096;26;20320;-80
2024/05/01 05:53:08;;;;;;;16.23;4.88;;;;;;;;;;5528393;26;20335;-81
2024/05/01 05:55:35;;;;;;;19.38;4.47;;;;;;;;;;5528362;26;20393;-81
2024/05/01 05:58:01;;;;;;;18.02;5.00;;;;;;;;;;5527950;26;20331;-81
2024/05/01 06:00:27;;;;;;;20.73;4.97;;;;;;;;;;5527971;26;20418;-81
2024/05/01 06:02:53;;;;;;;20.75;4.70;;;;;;;;;;5528099;26;20335;-80
2024/05/01 06:05:19;;;;;;;21.70;4.72;;;;;;;;;;5527914;26;20461;-80
2024/05/01 06:07:45;;;;;;;15.75;4.68;;;;;;;;;;5527952;26;20831;-81
2024/05/01 06:10:11;;;;;;;18.75;4.25;;;;;;;;;;5528516;26;20429;-81
2024/05/01 06:12:37;;;;;;;18.40;4.90;;;;;;;;;;5527931;26;20336;-81
2024/05/01 06:15:03;;;;;;;16.83;4.55;;;;;;;;;;5473829;26;20417;-81
2024/05/01 06:17:29;;;;;;;16.73;4.53;;;;;;;;;;5524056;26;20308;-81
2024/05/01 06:19:55;;;;;;;17.40;5.00;;;;;;;;;;5495226;26;20422;-81
2024/05/01 06:22:20;;;;;;;22.52;5.30;;;;;;;;;;5527405;26;20358;-80
2024/05/01 06:24:46;;;;;;;27.90;5.28;;;;;;;;;;5527252;26;20646;-80
2024/05/01 06:27:14;;;;;;;17.73;4.38;;;;;;;;;;5527297;26;20327;-81
2024/05/01 06:29:40;;;;;;;21.02;5.43;;;;;;;;;;5527122;26;20324;-80
2024/05/01 06:32:06;;;;;;;18.70;4.60;;;;;;;;;;5525531;26;20981;-80
2024/05/01 06:34:32;;;;;;;19.02;4.93;;;;;;;;;;5524717;26;20319;-80
2024/05/01 06:36:59;;;;;;;16.48;4.60;;;;;;;;;;5515660;26;20322;-80
2024/05/01 06:39:25;;;;;;;22.00;5.13;;;;;;;;;;5519754;26;20740;-80
2024/05/01 06:41:51;;;;;;;15.27;4.32;;;;;;;;;;5526017;26;20315;-80
2024/05/01 06:44:17;;;;;;;16.42;4.47;;;;;;;;;;5525423;26;20312;-80
2024/05/01 06:46:43;;;;;;;16.67;4.50;;;;;;;;;;5525947;26;20809;-80
2024/05/01 06:49:11;;;;;;;19.20;4.75;;;;;;;;;;5525485;26;20420;-80
2024/05/01 06:51:37;;;;;;;22.63;5.00;;;;;;;;;;5493551;26;20328;-80
2024/05/01 06:54:03;;;;;;;19.30;4.55;;;;;;;;;;5525404;26;20445;-81
2024/05/01 06:56:29;;;;;;;16.37;4.40;;;;;;;;;;5494325;26;20490;-81
2024/05/01 06:58:55;;;;;;;20.77;4.82;;;;;;;;;;5524777;26;20316;-80
2024/05/01 07:01:21;;;;;;;22.70;4.70;;;;;;;;;;5524180;26;20771;-80
2024/05/01 07:03:47;;;;;;;11.70;4.00;;;;;;;;;;5524147;26;20880;-80
2024/05/01 07:06:13;;;;;;;27.17;5.80;;;;;;;;;;5510461;26;20327;-80
2024/05/01 07:08:39;;;;;;;17.15;4.47;;;;;;;;;;5517821;26;20335;-80
2024/05/01 07:11:05;;;;;;;18.38;5.10;;;;;;;;;;5494884;26;20319;-80
2024/05/01 07:13:31;;;;;;;18.98;4.50;;;;;;;;;;5527532;26;20363;-80
2024/05/01 07:15:57;;;;;;;19.10;5.05;;;;;;;;;;5526566;26;20406;-80
2024/05/01 07:18:23;;;;;;;20.15;4.25;;;;;;;;;;5526787;26;20385;-80
2024/05/01 07:20:49;;;;;;;12.80;3.90;;;;;;;;;;5526950;26;20431;-80
2024/05/01 07:23:21;;;;;;;26.60;4.60;;;;;;;;;;5527554;26;20737;-81
2024/05/01 07:25:47;;;;;;;20.07;4.50;;;;;;;;;;5526665;26;20341;-80
2024/05/01 07:28:13;;;;;;;18.55;4.63;;;;;;;;;;5527134;26;20807;-80
2024/05/01 07:30:39;;;;;;;18.15;4.10;;;;;;;;;;5526625;26;20331;-80
2024/05/01 07:33:08;;;;;;;12.45;3.95;;;;;;;;;;5526561;26;20367;-80
2024/05/01 07:35:34;;;;;;;15.53;4.30;;;;;;;;;;5526694;26;20328;-80
2024/05/01 07:38:00;;;;;;;18.23;4.13;;;;;;;;;;5511214;26;20380;-80
2024/05/01 07:40:26;;;;;;;23.65;4.60;;;;;;;;;;5526773;26;20327;-80
2024/05/01 07:42:52;;;;;;;19.75;4.40;;;;;;;;;;5526699;26;20863;-80
2024/05/01 07:45:18;;;;;;;21.15;4.15;;;;;;;;;;5526591;26;20323;-80
2024/05/01 07:47:44;;;;;;;16.13;4.07;;;;;;;;;;5526605;26;20327;-80
2024/05/01 07:50:10;;;;;;;16.58;4.22;;;;;;;;;;5526202;26;20324;-80
2024/05/01 07:52:36;;;;;;;17.05;4.35;;;;;;;;;;5526332;26;20721;-80
2024/05/01 07:55:03;;;;;;;16.67;4.40;;;;;;;;;;5526405;26;20355;-80
2024/05/01 07:57:29;;;;;;;23.98;4.47;;;;;;;;;;5526729;26;20320;-80
2024/05/01 07:59:55;;;;;;;20.10;4.13;;;;;;;;;;5526421;26;20356;-80
2024/05/01 08:02:20;;;;;;;13.03;4.30;;;;;;;;;;5526067;26;20525;-80
2024/05/01 08:04:46;;;;;;;12.43;4.27;;;;;;;;;;5527324;26;20324;-80
2024/05/01 08:07:12;;;;;;;12.57;3.80;;;;;;;;;;5530218;26;20316;-80
2024/05/01 08:09:38;;;;;;;16.57;4.20;;;;;;;;;;5529811;26;20867;-80
2024/05/01 08:12:05;;;;;;;13.35;3.92;;;;;;;;;;5529817;26;20368;-80
2024/05/01 08:14:31;;;;;;;14.50;4.05;;;;;;;;;;5529708;26;20383;-80
2024/05/01 08:16:56;;;;;;;15.27;4.15;;;;;;;;;;5528952;26;20323;-80
2024/05/01 08:19:22;;;;;;;15.25;4.25;;;;;;;;;;5528799;26;20432;-80
2024/05/01 08:21:48;;;;;;;16.63;4.47;;;;;;;;;;5527710;26;20416;-80
2024/05/01 08:24:14;;;;;;;19.67;4.45;;;;;;;;;;5527666;26;20328;-80
2024/05/01 08:26:40;;;;;;;15.82;4.22;;;;;;;;;;5526407;26;20817;-78
2024/05/01 08:29:06;;;;;;;20.20;4.30;;;;;;;;;;5527598;26;20323;-80
2024/05/01 08:31:32;;;;;;;23.13;4.68;;;;;;;;;;5527865;26;20338;-80
2024/05/01 08:33:58;;;;;;;21.02;4.13;;;;;;;;;;5528698;26;20316;-78
2024/05/01 08:36:24;;;;;;;21.73;4.50;;;;;;;;;;5526520;26;20929;-80
2024/05/01 08:38:50;;;;;;;15.50;4.05;;;;;;;;;;5512974;26;20367;-78
2024/05/01 08:41:16;;;;;;;18.52;4.10;;;;;;;;;;5527354;26;20323;-78
2024/05/01 08:43:44;;;;;;;20.90;4.15;;;;;;;;;;5527732;26;20357;-80
2024/05/01 08:46:10;;;;;;;21.85;4.32;;;;;;;;;;5527122;26;20312;-80
2024/05/01 08:48:38;;;;;;;18.60;4.05;;;;;;;;;;5527539;26;20375;-78
2024/05/01 08:51:09;;;;;;;17.50;4.22;;;;;;;;;;5526475;26;20368;-78
2024/05/01 08:53:36;;;;;;;18.25;4.05;;;;;;;;;;5527433;26;20323;-78
2024/05/01 08:56:02;;;;;;;13.40;3.45;;;;;;;;;;5527666;26;20359;-78
2024/05/01 08:58:32;;;;;;;15.10;3.83;;;;;;;;;;5528037;26;21805;-80
2024/05/01 09:00:59;;;;;;;15.05;3.85;;;;;;;;;;5521521;26;20331;-80
2024/05/01 09:03:25;;;;;;;14.55;3.85;;;;;;;;;;5528109;26;20363;-80
2024/05/01 09:05:53;;;;;;;15.32;3.92;;;;;;;;;;5528910;26;20354;-80
2024/05/01 09:08:19;;;;;;;15.75;3.55;;;;;;;;;;5529087;26;20385;-81
2024/05/01 09:10:45;;;;;;;19.58;4.22;;;;;;;;;;5528959;26;20320;-81
2024/05/01 09:13:12;;;;;;;11.63;3.95;;;;;;;;;;5496824;26;20335;-81
2024/05/01 09:15:38;;;;;;;20.75;4.15;;;;;;;;;;5528951;26;20412;-81
2024/05/01 09:18:11;;;;;;;13.93;3.97;;;;;;;;;;5529201;26;20328;-81
2024/05/01 09:20:37;;;;;;;16.40;4.40;;;;;;;;;;5528709;26;20332;-79
2024/05/01 09:23:03;;;;;;;11.53;4.10;;;;;;;;;;5530181;26;20327;-81
2024/05/01 09:25:29;;;;;;;18.60;3.80;;;;;;;;;;5529470;26;20875;-81
2024/05/01 09:27:55;;;;;;;15.00;3.92;;;;;;;;;;5529769;26;20323;-81
2024/05/01 09:30:24;;;;;;;15.65;3.80;;;;;;;;;;5529244;26;20336;-81
2024/05/01 09:32:50;;;;;;;14.25;4.07;;;;;;;;;;5529126;26;20371;-81
2024/05/01 09:35:16;;;;;;;14.68;4.07;;;;;;;;;;5529244;26;20788;-81
2024/05/01 09:37:44;;;;;;;15.98;4.15;;;;;;;;;;5513231;26;20338;-81
2024/05/01 09:40:11;;;;;;;14.77;4.32;;;;;;;;;;5529264;26;20324;-81
2024/05/01 09:42:39;;;;;;;20.98;3.85;;;;;;;;;;5496458;26;20339;-81
2024/05/01 09:45:05;;;;;;;19.58;4.07;;;;;;;;;;5528787;26;20422;-81
2024/05/01 09:47:32;;;;;;;16.42;3.85;;;;;;;;;;5529294;26;20327;-81
2024/05/01 09:50:01;;;;;;;16.77;4.20;;;;;;;;;;5528688;26;20350;-81
2024/05/01 09:52:27;;;;;;;11.95;4.18;;;;;;;;;;5529133;26;20416;-81
2024/05/01 09:54:54;;;;;;;15.30;3.88;;;;;;;;;;5529494;26;20828;-81
2024/05/01 09:57:22;;;;;;;12.38;3.70;;;;;;;;;;5529393;26;20332;-81
2024/05/01 09:59:49;;;;;;;12.57;4.07;;;;;;;;;;5528530;26;20816;-81
2024/05/01 10:02:17;;;;;;;11.50;4.00;;;;;;;;;;5528141;26;20331;-81
2024/05/01 10:04:43;;;;;;;14.82;3.83;;;;;;;;;;5529275;26;20331;-81
2024/05/01 10:07:09;;;;;;;8.55;3.90;;;;;;;;;;5528633;26;20379;-81
2024/05/01 10:09:35;;;;;;;12.05;3.70;;;;;;;;;;5529144;26;20697;-81
2024/05/01 10:12:03;;;;;;;10.80;4.00;;;;;;;;;;5528039;26;20336;-82
2024/05/01 10:14:34;;;;;;;8.73;3.55;;;;;;;;;;5528939;26;20327;-81
2024/05/01 10:17:09;;;;;;;12.10;3.38;;;;;;;;;;5528776;26;20669;-81
2024/05/01 10:19:50;;;;;;;10.85;3.50;;;;;;;;;;5528660;26;20664;-82
2024/05/01 10:22:16;;;;;;;10.10;3.78;;;;;;;;;;5525471;26;20890;-82
2024/05/01 10:24:42;;;;;;;10.35;3.45;;;;;;;;;;5528932;26;20323;-81
2024/05/01 10:27:12;;;;;;;12.43;3.72;;;;;;;;;;5528429;26;20945;-82
2024/05/01 10:29:38;;;;;;;13.57;3.70;;;;;;;;;;5528479;26;20354;-81
2024/05/01 10:32:13;;;;;;;8.52;3.35;;;;;;;;;;5527868;26;20360;-81
2024/05/01 10:34:40;;;;;;;11.80;3.60;;;;;;;;;;5528380;26;20392;-80
2024/05/01 10:37:08;;;;;;;8.77;3.78;;;;;;;;;;5528677;26;20324;-82
2024/05/01 10:39:34;;;;;;;10.13;3.38;;;;;;;;;;5524870;26;20838;-81
2024/05/01 10:42:00;;;;;;;9.68;3.35;;;;;;;;;;5530315;26;20376;-83
2024/05/01 10:44:26;;;;;;;11.82;3.45;;;;;;;;;;5531031;26;20323;-83
2024/05/01 10:46:52;;;;;;;12.02;3.20;;;;;;;;;;5530266;26;20319;-83
2024/05/01 10:49:19;;;;;;;9.15;3.60;;;;;;;;;;5530679;26;20320;-83
2024/05/01 10:51:45;;;;;;;7.68;3.10;;;;;;;;;;5526256;26;20364;-84
2024/05/01 10:54:11;;;;;;;8.55;3.65;;;;;;;;;;5530833;26;20358;-83
2024/05/01 10:56:37;;;;;;;10.10;3.20;;;;;;;;;;5530535;26;20380;-83
2024/05/01 10:59:03;;;;;;;9.45;2.78;;;;;;;;;;5530538;26;20332;-83
2024/05/01 11:01:30;;;;;;;8.70;3.10;;;;;;;;;;5530583;26;20327;-83
2024/05/01 11:03:56;;;;;;;12.33;3.40;;;;;;;;;;5529339;26;20367;-83
2024/05/01 11:06:27;;;;;;;12.48;2.97;;;;;;;;;;5527869;26;20391;-83
2024/05/01 11:09:19;;;;;;;7.63;3.00;;;;;;;;;;5529691;26;20336;-83
2024/05/01 11:11:46;;;;;;;9.83;2.90;;;;;;;;;;5521729;26;20328;-82
2024/05/01 11:14:19;;;;;;;6.90;2.90;;;;;;;;;;5529594;26;20359;-83
2024/05/01 11:16:45;;;;;;;8.17;2.80;;;;;;;;;;5529780;26;20355;-83
2024/05/01 11:19:11;;;;;;;8.17;2.90;;;;;;;;;;5529918;26;20372;-83
2024/05/01 11:21:38;;;;;;;9.43;2.73;;;;;;;;;;5529621;26;20332;-83
2024/05/01 11:24:04;;;;;;;9.98;2.95;;;;;;;;;;5529085;26;20327;-83
2024/05/01 11:26:30;;;;;;;6.25;2.50;;;;;;;;;;5529759;26;20327;-83
2024/05/01 11:28:57;;;;;;;6.50;2.67;;;;;;;;;;5528186;26;20733;-81
2024/05/01 11:31:22;;;;;;;11.40;3.13;;;;;;;;;;5530121;26;20358;-81
2024/05/01 11:33:48;;;;;;;9.27;2.90;;;;;;;;;;5529832;26;20327;-81
2024/05/01 11:36:14;;;;;;;6.15;2.70;;;;;;;;;;5529651;26;20323;-81
2024/05/01 11:38:41;;;;;;;6.75;2.58;;;;;;;;;;5529343;26;20328;-83
2024/05/01 11:41:06;;;;;;;8.88;3.08;;;;;;;;;;5530044;26;20352;-83
2024/05/01 11:43:32;;;;;;;8.45;2.80;;;;;;;;;;5529090;26;20312;-83
2024/05/01 11:45:58;;;;;;;8.40;2.90;;;;;;;;;;5529812;26;20312;-83
2024/05/01 11:48:24;;;;;;;6.63;2.72;;;;;;;;;;5529780;26;20335;-83
2024/05/01 11:50:50;;;;;;;8.20;2.75;;;;;;;;;;5529099;26;20928;-83
2024/05/01 11:53:16;;;;;;;6.68;2.88;;;;;;;;;;5528306;26;20315;-84
2024/05/01 11:55:42;;;;;;;8.32;3.00;;;;;;;;;;5529327;26;20402;-83
2024/05/01 11:58:09;;;;;;;6.78;2.80;;;;;;;;;;5529132;26;20413;-84
2024/05/01 12:00:36;;;;;;;7.95;2.75;;;;;;;;;;5528551;26;20327;-83
2024/05/01 12:03:03;;;;;;;7.70;2.83;;;;;;;;;;5528584;26;20367;-84
2024/05/01 12:05:29;;;;;;;9.05;2.97;;;;;;;;;;5528339;26;20856;-84
2024/05/01 12:07:58;;;;;;;7.78;2.80;;;;;;;;;;5529124;26;20304;-84
2024/05/01 12:10:24;;;;;;;7.50;2.53;;;;;;;;;;5526361;26;20895;-83
2024/05/01 12:12:50;;;;;;;7.43;2.88;;;;;;;;;;5529271;26;20307;-83
2024/05/01 12:15:16;;;;;;;8.38;3.00;;;;;;;;;;5528901;26;20363;-83
2024/05/01 12:17:42;;;;;;;8.35;2.88;;;;;;;;;;5495911;26;20315;-83
2024/05/01 12:20:08;;;;;;;7.80;2.90;;;;;;;;;;5527058;26;20316;-83
2024/05/01 12:22:34;;;;;;;7.10;2.58;;;;;;;;;;5527950;26;20420;-83
2024/05/01 12:25:00;;;;;;;9.73;2.90;;;;;;;;;;5528224;26;20323;-83
2024/05/01 12:27:26;;;;;;;5.47;2.73;;;;;;;;;;5527146;26;20348;-83
2024/05/01 12:29:52;;;;;;;5.77;2.93;;;;;;;;;;5528309;26;20316;-83
2024/05/01 12:32:37;;;;;;;7.77;2.50;;;;;;;;;;5527182;26;20308;-83
2024/05/01 12:35:23;;;;;;;7.75;2.95;;;;;;;;;;5528174;26;20385;-83
2024/05/01 12:37:49;;;;;;;5.95;2.83;;;;;;;;;;5511415;26;20915;-82
2024/05/01 12:40:21;;;;;;;6.00;2.75;;;;;;;;;;5527754;26;20319;-83
2024/05/01 12:42:48;;;;;;;6.70;2.75;;;;;;;;;;5527384;26;20312;-82
2024/05/01 12:45:34;;;;;;;6.47;2.73;;;;;;;;;;5526762;26;20358;-81
2024/05/01 12:48:06;;;;;;;7.45;2.90;;;;;;;;;;5525645;26;20805;-81
2024/05/01 12:50:33;;;;;;;6.65;2.88;;;;;;;;;;5488522;26;20327;-81
2024/05/01 12:52:59;;;;;;;6.90;2.73;;;;;;;;;;5529640;26;20312;-80
2024/05/01 12:55:27;;;;;;;6.85;3.38;;;;;;;;;;5529064;26;20327;-80
2024/05/01 12:57:54;;;;;;;7.90;3.20;;;;;;;;;;5530353;26;20324;-81
2024/05/01 13:00:23;;;;;;;6.40;2.90;;;;;;;;;;5530543;26;20332;-81
2024/05/01 13:02:53;;;;;;;7.45;3.13;;;;;;;;;;5530441;26;20328;-81
2024/05/01 13:05:31;;;;;;;5.65;3.15;;;;;;;;;;5530403;26;20328;-81
2024/05/01 13:07:57;;;;;;;6.50;2.58;;;;;;;;;;5530719;26;20896;-80
2024/05/01 13:10:32;;;;;;;7.15;2.90;;;;;;;;;;5526913;26;20315;-81
2024/05/01 13:13:01;;;;;;;8.73;3.20;;;;;;;;;;5529425;26;20331;-81
2024/05/01 13:15:32;;;;;;;5.97;2.80;;;;;;;;;;5528920;26;20377;-81
2024/05/01 13:18:17;;;;;;;6.57;2.70;;;;;;;;;;5528996;26;20397;-81
2024/05/01 13:21:03;;;;;;;6.00;2.85;;;;;;;;;;5529310;26;20763;-81
2024/05/01 13:23:29;;;;;;;5.25;3.15;;;;;;;;;;5528192;26;20320;-81
2024/05/01 13:25:55;;;;;;;7.32;2.90;;;;;;;;;;5528754;26;20754;-81
2024/05/01 13:28:25;;;;;;;7.32;2.70;;;;;;;;;;5529115;26;20367;-81
2024/05/01 13:30:57;;;;;;;7.47;3.00;;;;;;;;;;5529104;26;20320;-81
2024/05/01 13:33:23;;;;;;;5.22;2.90;;;;;;;;;;5529026;26;20323;-81
2024/05/01 13:35:49;;;;;;;6.75;2.95;;;;;;;;;;5529004;26;20324;-81
2024/05/01 13:38:15;;;;;;;6.20;3.10;;;;;;;;;;5513190;26;20331;-81
2024/05/01 13:40:44;;;;;;;7.10;2.90;;;;;;;;;;5529142;26;20327;-81
2024/05/01 13:43:12;;;;;;;8.98;2.85;;;;;;;;;;5528668;26;20328;-81
2024/05/01 13:45:39;;;;;;;8.33;2.60;;;;;;;;;;5529662;26;20362;-81
2024/05/01 13:48:05;;;;;;;9.18;2.90;;;;;;;;;;5529485;26;20425;-81
2024/05/01 13:50:32;;;;;;;3.88;2.75;;;;;;;;;;5529146;26;20384;-81
2024/05/01 13:53:13;;;;;;;6.03;2.60;;;;;;;;;;5529368;26;20834;-81
2024/05/01 13:55:40;;;;;;;7.90;2.70;;;;;;;;;;5503590;26;20383;-81
2024/05/01 13:58:06;;;;;;;6.72;2.70;;;;;;;;;;5528601;26;20348;-80
2024/05/01 14:00:32;;;;;;;8.68;3.22;;;;;;;;;;5527612;26;20350;-81
2024/05/01 14:02:58;;;;;;;6.43;2.97;;;;;;;;;;5527401;26;20324;-81
2024/05/01 14:05:24;;;;;;;7.07;2.85;;;;;;;;;;5527930;26;20478;-81
2024/05/01 14:07:50;;;;;;;5.53;2.72;;;;;;;;;;5528615;26;20414;-81
2024/05/01 14:10:16;;;;;;;4.40;2.80;;;;;;;;;;5528274;26;20477;-81
2024/05/01 14:12:42;;;;;;;6.07;2.90;;;;;;;;;;5525360;26;20754;-81
2024/05/01 14:15:14;;;;;;;5.07;3.00;;;;;;;;;;5528579;26;20320;-81
2024/05/01 14:17:50;;;;;;;5.22;2.55;;;;;;;;;;5528102;26;20408;-81
2024/05/01 14:20:25;;;;;;;6.28;2.72;;;;;;;;;;5528428;26;20320;-81
2024/05/01 14:22:57;;;;;;;6.47;2.72;;;;;;;;;;5503208;26;20320;-81
2024/05/01 14:25:24;;;;;;;5.85;2.95;;;;;;;;;;5528572;26;20852;-81
2024/05/01 14:27:50;;;;;;;6.70;2.70;;;;;;;;;;5528239;26;20375;-81
2024/05/01 14:30:26;;;;;;;5.88;2.60;;;;;;;;;;5528098;26;20312;-81
2024/05/01 14:32:52;;;;;;;5.78;2.85;;;;;;;;;;5525977;26;20681;-81